sensor_id;sensor_type;location;lat;lon;timestamp;pressure;altitude;pressure_sealevel;temperature;humidity
65756;BME280;52489;47.502;18.940;2022-11-21T00:00:09;97548.69;;;1.66;93.41
65756;BME280;52489;47.502;18.940;2022-11-21T00:01:18;97541.19;;;1.64;93.58
65756;BME280;52489;47.502;18.940;2022-11-21T00:02:21;97547.69;;;1.72;93.46
65756;BME280;52489;47.502;18.940;2022-11-21T00:03:24;97543.28;;;1.67;93.52
65756;BME280;52489;47.502;18.940;2022-11-21T00:04:27;97540.69;;;1.67;93.31
65756;BME280;52489;47.502;18.940;2022-11-21T00:05:31;97543.62;;;1.81;92.50
65756;BME280;52489;47.502;18.940;2022-11-21T00:06:34;97543.28;;;1.67;92.56
65756;BME280;52489;47.502;18.940;2022-11-21T00:07:36;97537.09;;;1.73;92.68
65756;BME280;52489;47.502;18.940;2022-11-21T00:08:39;97539.09;;;1.61;93.20
65756;BME280;52489;47.502;18.940;2022-11-21T00:09:42;97534.75;;;1.67;93.10
65756;BME280;52489;47.502;18.940;2022-11-21T00:10:45;97531.09;;;1.63;93.47
65756;BME280;52489;47.502;18.940;2022-11-21T00:11:50;97532.09;;;1.56;94.08
65756;BME280;52489;47.502;18.940;2022-11-21T00:12:54;97529.00;;;1.59;94.18
65756;BME280;52489;47.502;18.940;2022-11-21T00:13:57;97530.63;;;1.66;94.14
65756;BME280;52489;47.502;18.940;2022-11-21T00:15:00;97524.66;;;1.65;94.00
65756;BME280;52489;47.502;18.940;2022-11-21T00:16:09;97524.66;;;1.60;93.78
65756;BME280;52489;47.502;18.940;2022-11-21T00:17:12;97521.56;;;1.68;93.52
65756;BME280;52489;47.502;18.940;2022-11-21T00:18:15;97530.81;;;1.54;93.84
65756;BME280;52489;47.502;18.940;2022-11-21T00:19:18;97521.94;;;1.45;94.28
65756;BME280;52489;47.502;18.940;2022-11-21T00:20:21;97515.78;;;1.51;94.30
65756;BME280;52489;47.502;18.940;2022-11-21T00:21:24;97526.63;;;1.48;94.56
65756;BME280;52489;47.502;18.940;2022-11-21T00:22:26;97513.44;;;1.44;94.77
65756;BME280;52489;47.502;18.940;2022-11-21T00:23:29;97516.00;;;1.39;95.47
65756;BME280;52489;47.502;18.940;2022-11-21T00:24:32;97517.13;;;1.16;95.55
65756;BME280;52489;47.502;18.940;2022-11-21T00:25:35;97512.62;;;1.01;96.15
65756;BME280;52489;47.502;18.940;2022-11-21T00:26:38;97510.41;;;0.88;96.80
65756;BME280;52489;47.502;18.940;2022-11-21T00:27:41;97511.13;;;1.10;96.31
65756;BME280;52489;47.502;18.940;2022-11-21T00:28:44;97505.69;;;1.07;95.72
65756;BME280;52489;47.502;18.940;2022-11-21T00:29:47;97504.38;;;1.04;96.29
65756;BME280;52489;47.502;18.940;2022-11-21T00:30:49;97510.44;;;1.20;95.18
65756;BME280;52489;47.502;18.940;2022-11-21T00:31:52;97502.47;;;1.22;95.15
65756;BME280;52489;47.502;18.940;2022-11-21T00:32:57;97501.41;;;1.23;95.02
65756;BME280;52489;47.502;18.940;2022-11-21T00:34:00;97505.81;;;1.22;95.21
65756;BME280;52489;47.502;18.940;2022-11-21T00:35:03;97498.38;;;1.31;94.69
65756;BME280;52489;47.502;18.940;2022-11-21T00:36:09;97493.19;;;1.26;94.97
65756;BME280;52489;47.502;18.940;2022-11-21T00:37:12;97499.88;;;1.22;95.74
65756;BME280;52489;47.502;18.940;2022-11-21T00:38:15;97488.31;;;1.29;95.67
65756;BME280;52489;47.502;18.940;2022-11-21T00:39:18;97488.56;;;1.33;95.26
65756;BME280;52489;47.502;18.940;2022-11-21T00:40:20;97487.00;;;1.27;95.36
65756;BME280;52489;47.502;18.940;2022-11-21T00:41:23;97481.59;;;1.28;95.53
65756;BME280;52489;47.502;18.940;2022-11-21T00:42:26;97479.78;;;1.29;95.59
65756;BME280;52489;47.502;18.940;2022-11-21T00:43:28;97477.22;;;1.29;95.71
65756;BME280;52489;47.502;18.940;2022-11-21T00:44:31;97481.81;;;1.27;96.09
65756;BME280;52489;47.502;18.940;2022-11-21T00:45:34;97480.38;;;1.41;95.49
65756;BME280;52489;47.502;18.940;2022-11-21T00:46:36;97471.06;;;1.35;95.32
65756;BME280;52489;47.502;18.940;2022-11-21T00:47:39;97474.12;;;1.32;95.48
65756;BME280;52489;47.502;18.940;2022-11-21T00:48:42;97474.91;;;1.32;95.48
65756;BME280;52489;47.502;18.940;2022-11-21T00:49:44;97466.88;;;1.29;95.43
65756;BME280;52489;47.502;18.940;2022-11-21T00:50:48;97462.53;;;1.34;95.36
65756;BME280;52489;47.502;18.940;2022-11-21T00:51:51;97461.56;;;1.46;94.67
65756;BME280;52489;47.502;18.940;2022-11-21T00:52:55;97466.47;;;1.42;94.88
65756;BME280;52489;47.502;18.940;2022-11-21T00:53:57;97467.47;;;1.41;94.80
65756;BME280;52489;47.502;18.940;2022-11-21T00:55:00;97467.69;;;1.34;95.13
65756;BME280;52489;47.502;18.940;2022-11-21T00:56:04;97474.41;;;1.30;95.74
65756;BME280;52489;47.502;18.940;2022-11-21T00:57:06;97468.00;;;1.43;95.64
65756;BME280;52489;47.502;18.940;2022-11-21T00:58:09;97483.72;;;1.36;95.85
65756;BME280;52489;47.502;18.940;2022-11-21T00:59:12;97486.75;;;1.28;95.81
65756;BME280;52489;47.502;18.940;2022-11-21T01:00:15;97497.28;;;1.22;95.84
65756;BME280;52489;47.502;18.940;2022-11-21T01:01:18;97493.41;;;1.19;96.68
65756;BME280;52489;47.502;18.940;2022-11-21T01:02:21;97504.72;;;1.18;96.98
65756;BME280;52489;47.502;18.940;2022-11-21T01:03:24;97499.88;;;1.22;97.84
65756;BME280;52489;47.502;18.940;2022-11-21T01:04:33;97501.66;;;1.21;98.11
65756;BME280;52489;47.502;18.940;2022-11-21T01:05:36;97492.72;;;1.34;97.57
65756;BME280;52489;47.502;18.940;2022-11-21T01:06:39;97481.22;;;1.52;95.91
65756;BME280;52489;47.502;18.940;2022-11-21T01:07:42;97484.06;;;1.55;95.43
65756;BME280;52489;47.502;18.940;2022-11-21T01:08:45;97481.78;;;1.59;95.31
65756;BME280;52489;47.502;18.940;2022-11-21T01:09:47;97480.72;;;1.55;95.53
65756;BME280;52489;47.502;18.940;2022-11-21T01:10:50;97474.03;;;1.54;94.84
65756;BME280;52489;47.502;18.940;2022-11-21T01:11:54;97474.50;;;1.51;95.13
65756;BME280;52489;47.502;18.940;2022-11-21T01:12:56;97472.44;;;1.53;95.02
65756;BME280;52489;47.502;18.940;2022-11-21T01:13:59;97470.63;;;1.48;94.33
65756;BME280;52489;47.502;18.940;2022-11-21T01:15:02;97471.56;;;1.32;95.38
65756;BME280;52489;47.502;18.940;2022-11-21T01:16:06;97472.13;;;1.44;95.11
65756;BME280;52489;47.502;18.940;2022-11-21T01:17:10;97466.16;;;1.39;95.15
65756;BME280;52489;47.502;18.940;2022-11-21T01:18:13;97471.13;;;1.45;95.13
65756;BME280;52489;47.502;18.940;2022-11-21T01:19:15;97469.09;;;1.52;95.03
65756;BME280;52489;47.502;18.940;2022-11-21T01:20:18;97469.81;;;1.48;94.92
65756;BME280;52489;47.502;18.940;2022-11-21T01:21:23;97465.69;;;1.47;94.59
65756;BME280;52489;47.502;18.940;2022-11-21T01:22:26;97465.25;;;1.55;94.03
65756;BME280;52489;47.502;18.940;2022-11-21T01:23:29;97470.37;;;1.50;93.76
65756;BME280;52489;47.502;18.940;2022-11-21T01:24:32;97468.34;;;1.57;92.79
65756;BME280;52489;47.502;18.940;2022-11-21T01:25:35;97468.84;;;1.54;92.77
65756;BME280;52489;47.502;18.940;2022-11-21T01:26:38;97465.16;;;1.40;93.27
65756;BME280;52489;47.502;18.940;2022-11-21T01:27:41;97468.47;;;1.35;93.82
65756;BME280;52489;47.502;18.940;2022-11-21T01:28:45;97468.78;;;1.44;93.77
65756;BME280;52489;47.502;18.940;2022-11-21T01:29:47;97470.63;;;1.48;93.73
65756;BME280;52489;47.502;18.940;2022-11-21T01:30:50;97467.75;;;1.45;93.58
65756;BME280;52489;47.502;18.940;2022-11-21T01:31:53;97463.81;;;1.32;94.62
65756;BME280;52489;47.502;18.940;2022-11-21T01:32:56;97462.00;;;1.32;94.67
65756;BME280;52489;47.502;18.940;2022-11-21T01:33:59;97461.03;;;1.44;94.66
65756;BME280;52489;47.502;18.940;2022-11-21T01:35:02;97461.75;;;1.34;95.73
65756;BME280;52489;47.502;18.940;2022-11-21T01:37:15;97468.47;;;1.35;96.59
65756;BME280;52489;47.502;18.940;2022-11-21T01:38:18;97469.69;;;1.22;97.24
65756;BME280;52489;47.502;18.940;2022-11-21T01:39:20;97469.03;;;1.05;97.30
65756;BME280;52489;47.502;18.940;2022-11-21T01:40:23;97460.59;;;1.14;97.22
65756;BME280;52489;47.502;18.940;2022-11-21T01:41:29;97466.12;;;1.28;96.57
65756;BME280;52489;47.502;18.940;2022-11-21T01:43:02;97469.22;;;1.30;96.20
65756;BME280;52489;47.502;18.940;2022-11-21T01:46:56;97475.12;;;1.26;95.36
65756;BME280;52489;47.502;18.940;2022-11-21T01:47:59;97476.66;;;1.27;94.89
65756;BME280;52489;47.502;18.940;2022-11-21T01:49:05;97483.13;;;1.24;95.14
65756;BME280;52489;47.502;18.940;2022-11-21T01:50:09;97468.91;;;1.22;95.28
65756;BME280;52489;47.502;18.940;2022-11-21T01:51:19;97476.13;;;1.20;95.19
65756;BME280;52489;47.502;18.940;2022-11-21T01:52:28;97467.78;;;1.07;96.05
65756;BME280;52489;47.502;18.940;2022-11-21T01:53:33;97468.09;;;1.16;95.68
65756;BME280;52489;47.502;18.940;2022-11-21T01:55:42;97470.19;;;0.87;96.50
65756;BME280;52489;47.502;18.940;2022-11-21T01:56:51;97464.63;;;1.00;96.34
65756;BME280;52489;47.502;18.940;2022-11-21T01:57:56;97460.84;;;1.13;95.40
65756;BME280;52489;47.502;18.940;2022-11-21T01:59:00;97464.06;;;0.93;95.96
65756;BME280;52489;47.502;18.940;2022-11-21T02:00:11;97453.47;;;0.95;96.52
65756;BME280;52489;47.502;18.940;2022-11-21T02:01:15;97463.78;;;0.89;97.23
65756;BME280;52489;47.502;18.940;2022-11-21T02:02:20;97461.19;;;0.89;98.11
65756;BME280;52489;47.502;18.940;2022-11-21T02:03:27;97449.63;;;0.97;98.27
65756;BME280;52489;47.502;18.940;2022-11-21T02:04:33;97456.66;;;1.02;98.26
65756;BME280;52489;47.502;18.940;2022-11-21T02:05:37;97456.91;;;1.05;97.79
65756;BME280;52489;47.502;18.940;2022-11-21T02:06:41;97456.91;;;1.05;98.04
65756;BME280;52489;47.502;18.940;2022-11-21T02:07:46;97453.88;;;1.13;97.58
65756;BME280;52489;47.502;18.940;2022-11-21T02:08:50;97460.63;;;1.20;98.77
65756;BME280;52489;47.502;18.940;2022-11-21T02:09:56;97458.88;;;1.25;99.28
65756;BME280;52489;47.502;18.940;2022-11-21T02:12:24;97459.19;;;0.97;99.31
65756;BME280;52489;47.502;18.940;2022-11-21T02:13:28;97462.03;;;1.00;99.67
65756;BME280;52489;47.502;18.940;2022-11-21T02:14:31;97455.13;;;1.06;99.99
65756;BME280;52489;47.502;18.940;2022-11-21T02:15:35;97453.34;;;1.11;100.00
65756;BME280;52489;47.502;18.940;2022-11-21T02:16:37;97455.19;;;1.16;100.00
65756;BME280;52489;47.502;18.940;2022-11-21T02:17:41;97446.97;;;1.19;100.00
65756;BME280;52489;47.502;18.940;2022-11-21T02:18:44;97453.72;;;1.25;99.90
65756;BME280;52489;47.502;18.940;2022-11-21T02:19:54;97452.16;;;1.24;99.87
65756;BME280;52489;47.502;18.940;2022-11-21T02:22:27;97448.28;;;1.27;99.49
65756;BME280;52489;47.502;18.940;2022-11-21T02:25:12;97443.75;;;1.44;98.90
65756;BME280;52489;47.502;18.940;2022-11-21T02:26:16;97457.38;;;1.34;98.53
65756;BME280;52489;47.502;18.940;2022-11-21T02:27:19;97451.22;;;1.41;99.20
65756;BME280;52489;47.502;18.940;2022-11-21T02:28:23;97451.53;;;1.49;99.01
65756;BME280;52489;47.502;18.940;2022-11-21T02:29:27;97450.19;;;1.42;99.11
65756;BME280;52489;47.502;18.940;2022-11-21T02:30:31;97454.28;;;1.37;99.16
65756;BME280;52489;47.502;18.940;2022-11-21T02:31:34;97450.44;;;1.40;99.05
65756;BME280;52489;47.502;18.940;2022-11-21T02:32:40;97455.84;;;1.39;98.74
65756;BME280;52489;47.502;18.940;2022-11-21T02:33:44;97449.94;;;1.43;98.67
65756;BME280;52489;47.502;18.940;2022-11-21T02:34:46;97458.22;;;1.45;98.70
65756;BME280;52489;47.502;18.940;2022-11-21T02:36:00;97449.69;;;1.45;98.46
65756;BME280;52489;47.502;18.940;2022-11-21T02:37:03;97450.22;;;1.47;98.35
65756;BME280;52489;47.502;18.940;2022-11-21T02:39:23;97448.47;;;1.57;98.33
65756;BME280;52489;47.502;18.940;2022-11-21T02:40:33;97446.41;;;1.59;98.72
65756;BME280;52489;47.502;18.940;2022-11-21T02:41:41;97449.25;;;1.58;98.24
65756;BME280;52489;47.502;18.940;2022-11-21T02:44:37;97452.06;;;1.56;98.50
65756;BME280;52489;47.502;18.940;2022-11-21T02:45:41;97447.63;;;1.47;98.58
65756;BME280;52489;47.502;18.940;2022-11-21T02:46:47;97449.66;;;1.40;98.55
65756;BME280;52489;47.502;18.940;2022-11-21T02:47:53;97449.69;;;1.45;98.92
65756;BME280;52489;47.502;18.940;2022-11-21T02:49:05;97452.03;;;1.46;99.19
65756;BME280;52489;47.502;18.940;2022-11-21T02:50:28;97453.56;;;1.47;99.62
65756;BME280;52489;47.502;18.940;2022-11-21T02:51:31;97442.78;;;1.55;99.71
65756;BME280;52489;47.502;18.940;2022-11-21T02:52:34;97452.59;;;1.58;99.89
65756;BME280;52489;47.502;18.940;2022-11-21T02:53:36;97454.41;;;1.58;100.00
65756;BME280;52489;47.502;18.940;2022-11-21T02:54:39;97462.44;;;1.62;99.91
65756;BME280;52489;47.502;18.940;2022-11-21T02:55:42;97461.66;;;1.61;99.15
65756;BME280;52489;47.502;18.940;2022-11-21T02:56:45;97461.16;;;1.64;98.70
65756;BME280;52489;47.502;18.940;2022-11-21T02:57:48;97457.25;;;1.62;98.59
65756;BME280;52489;47.502;18.940;2022-11-21T02:58:51;97458.81;;;1.57;98.69
65756;BME280;52489;47.502;18.940;2022-11-21T02:59:54;97453.63;;;1.57;99.05
65756;BME280;52489;47.502;18.940;2022-11-21T03:00:57;97458.34;;;1.66;98.79
65756;BME280;52489;47.502;18.940;2022-11-21T03:01:59;97461.16;;;1.64;98.43
65756;BME280;52489;47.502;18.940;2022-11-21T03:03:03;97455.75;;;1.66;98.36
65756;BME280;52489;47.502;18.940;2022-11-21T03:04:06;97451.59;;;1.65;98.08
65756;BME280;52489;47.502;18.940;2022-11-21T03:05:11;97455.19;;;1.58;97.92
65756;BME280;52489;47.502;18.940;2022-11-21T03:06:14;97450.03;;;1.58;97.87
65756;BME280;52489;47.502;18.940;2022-11-21T03:07:16;97454.94;;;1.65;97.51
65756;BME280;52489;47.502;18.940;2022-11-21T03:08:19;97445.13;;;1.62;97.71
65756;BME280;52489;47.502;18.940;2022-11-21T03:09:22;97446.66;;;1.58;97.95
65756;BME280;52489;47.502;18.940;2022-11-21T03:10:25;97452.34;;;1.55;98.57
65756;BME280;52489;47.502;18.940;2022-11-21T03:11:28;97450.28;;;1.57;98.45
65756;BME280;52489;47.502;18.940;2022-11-21T03:12:30;97439.72;;;1.64;98.07
65756;BME280;52489;47.502;18.940;2022-11-21T03:13:33;97437.94;;;1.69;97.24
65756;BME280;52489;47.502;18.940;2022-11-21T03:14:36;97442.03;;;1.65;96.95
65756;BME280;52489;47.502;18.940;2022-11-21T03:15:38;97446.91;;;1.56;97.36
65756;BME280;52489;47.502;18.940;2022-11-21T03:16:41;97438.38;;;1.56;98.45
65756;BME280;52489;47.502;18.940;2022-11-21T03:17:47;97434.03;;;1.62;98.29
65756;BME280;52489;47.502;18.940;2022-11-21T03:18:51;97436.38;;;1.68;98.02
65756;BME280;52489;47.502;18.940;2022-11-21T03:19:53;97440.47;;;1.54;98.77
65756;BME280;52489;47.502;18.940;2022-11-21T03:20:56;97442.25;;;1.48;99.38
65756;BME280;52489;47.502;18.940;2022-11-21T03:21:59;97441.19;;;1.49;99.04
65756;BME280;52489;47.502;18.940;2022-11-21T03:23:02;97443.06;;;1.59;98.34
65756;BME280;52489;47.502;18.940;2022-11-21T03:24:05;97442.03;;;1.60;97.31
65756;BME280;52489;47.502;18.940;2022-11-21T03:25:08;97440.47;;;1.59;95.67
65756;BME280;52489;47.502;18.940;2022-11-21T03:26:10;97438.66;;;1.54;96.12
65756;BME280;52489;47.502;18.940;2022-11-21T03:27:13;97437.88;;;1.54;95.94
65756;BME280;52489;47.502;18.940;2022-11-21T03:28:16;97441.22;;;1.54;94.47
65756;BME280;52489;47.502;18.940;2022-11-21T03:29:19;97439.31;;;1.34;95.89
65756;BME280;52489;47.502;18.940;2022-11-21T03:30:23;97432.63;;;1.39;95.66
65756;BME280;52489;47.502;18.940;2022-11-21T03:31:26;97430.00;;;1.28;96.41
65756;BME280;52489;47.502;18.940;2022-11-21T03:32:29;97431.50;;;1.19;96.68
65756;BME280;52489;47.502;18.940;2022-11-21T03:33:32;97432.06;;;1.31;96.60
65756;BME280;52489;47.502;18.940;2022-11-21T03:34:35;97429.53;;;1.36;95.93
65756;BME280;52489;47.502;18.940;2022-11-21T03:35:38;97435.28;;;1.49;95.24
65756;BME280;52489;47.502;18.940;2022-11-21T03:36:40;97426.94;;;1.36;95.13
65756;BME280;52489;47.502;18.940;2022-11-21T03:37:43;97430.34;;;1.47;95.11
65756;BME280;52489;47.502;18.940;2022-11-21T03:38:46;97429.03;;;1.45;94.62
65756;BME280;52489;47.502;18.940;2022-11-21T03:39:48;97425.16;;;1.42;94.70
65756;BME280;52489;47.502;18.940;2022-11-21T03:40:51;97417.44;;;1.47;94.40
65756;BME280;52489;47.502;18.940;2022-11-21T03:41:53;97420.28;;;1.51;93.49
65756;BME280;52489;47.502;18.940;2022-11-21T03:42:56;97427.75;;;1.42;94.04
65756;BME280;52489;47.502;18.940;2022-11-21T03:44:04;97423.06;;;1.34;94.37
65756;BME280;52489;47.502;18.940;2022-11-21T03:45:07;97422.53;;;1.32;94.66
65756;BME280;52489;47.502;18.940;2022-11-21T03:46:10;97423.88;;;1.40;94.42
65756;BME280;52489;47.502;18.940;2022-11-21T03:47:13;97423.56;;;1.31;94.52
65756;BME280;52489;47.502;18.940;2022-11-21T03:48:16;97427.66;;;1.27;95.46
65756;BME280;52489;47.502;18.940;2022-11-21T03:49:19;97424.84;;;1.28;95.87
65756;BME280;52489;47.502;18.940;2022-11-21T03:50:21;97426.09;;;1.26;95.62
65756;BME280;52489;47.502;18.940;2022-11-21T03:51:25;97420.16;;;1.25;95.94
65756;BME280;52489;47.502;18.940;2022-11-21T03:52:28;97417.31;;;1.22;95.91
65756;BME280;52489;47.502;18.940;2022-11-21T03:53:31;97420.13;;;1.20;95.96
65756;BME280;52489;47.502;18.940;2022-11-21T03:54:33;97419.31;;;1.14;95.97
65756;BME280;52489;47.502;18.940;2022-11-21T03:55:36;97421.47;;;1.28;95.33
65756;BME280;52489;47.502;18.940;2022-11-21T03:56:38;97420.09;;;1.15;95.62
65756;BME280;52489;47.502;18.940;2022-11-21T03:57:41;97414.66;;;1.11;95.78
65756;BME280;52489;47.502;18.940;2022-11-21T03:58:47;97413.62;;;1.07;96.57
65756;BME280;52489;47.502;18.940;2022-11-21T03:59:50;97418.31;;;1.16;96.47
65756;BME280;52489;47.502;18.940;2022-11-21T04:00:53;97414.94;;;1.15;96.44
65756;BME280;52489;47.502;18.940;2022-11-21T04:01:55;97414.44;;;1.13;97.19
65756;BME280;52489;47.502;18.940;2022-11-21T04:02:58;97407.19;;;1.15;97.28
65756;BME280;52489;47.502;18.940;2022-11-21T04:04:01;97413.16;;;1.21;97.02
65756;BME280;52489;47.502;18.940;2022-11-21T04:05:04;97415.25;;;1.24;96.59
65756;BME280;52489;47.502;18.940;2022-11-21T04:06:08;97406.47;;;1.20;96.56
65756;BME280;52489;47.502;18.940;2022-11-21T04:07:11;97408.50;;;1.12;96.27
65756;BME280;52489;47.502;18.940;2022-11-21T04:08:14;97412.84;;;1.12;96.75
65756;BME280;52489;47.502;18.940;2022-11-21T04:09:17;97408.00;;;1.21;96.28
65756;BME280;52489;47.502;18.940;2022-11-21T04:10:19;97408.31;;;1.29;95.75
65756;BME280;52489;47.502;18.940;2022-11-21T04:11:22;97410.31;;;1.17;95.93
65756;BME280;52489;47.502;18.940;2022-11-21T04:12:26;97397.31;;;1.02;97.81
65756;BME280;52489;47.502;18.940;2022-11-21T04:13:28;97403.03;;;1.09;97.43
65756;BME280;52489;47.502;18.940;2022-11-21T04:14:31;97402.75;;;1.05;97.28
65756;BME280;52489;47.502;18.940;2022-11-21T04:15:33;97397.69;;;1.21;96.99
65756;BME280;52489;47.502;18.940;2022-11-21T04:16:36;97391.81;;;1.30;96.19
65756;BME280;52489;47.502;18.940;2022-11-21T04:17:39;97393.09;;;1.28;96.33
65756;BME280;52489;47.502;18.940;2022-11-21T04:18:41;97382.50;;;1.29;96.09
65756;BME280;52489;47.502;18.940;2022-11-21T04:19:44;97384.56;;;1.22;95.95
65756;BME280;52489;47.502;18.940;2022-11-21T04:20:47;97383.16;;;1.09;96.94
65756;BME280;52489;47.502;18.940;2022-11-21T04:21:49;97380.09;;;1.07;97.51
65756;BME280;52489;47.502;18.940;2022-11-21T04:22:52;97377.50;;;1.07;97.29
65756;BME280;52489;47.502;18.940;2022-11-21T04:23:55;97386.09;;;1.23;97.04
65756;BME280;52489;47.502;18.940;2022-11-21T04:24:57;97389.44;;;1.19;97.23
65756;BME280;52489;47.502;18.940;2022-11-21T04:26:00;97375.69;;;1.08;97.67
65756;BME280;52489;47.502;18.940;2022-11-21T04:27:03;97375.94;;;1.06;97.83
65756;BME280;52489;47.502;18.940;2022-11-21T04:28:06;97384.47;;;1.12;97.84
65756;BME280;52489;47.502;18.940;2022-11-21T04:29:08;97378.31;;;1.18;97.75
65756;BME280;52489;47.502;18.940;2022-11-21T04:30:11;97377.78;;;1.11;98.34
65756;BME280;52489;47.502;18.940;2022-11-21T04:31:14;97375.19;;;1.11;98.41
65756;BME280;52489;47.502;18.940;2022-11-21T04:32:17;97375.69;;;1.08;98.53
65756;BME280;52489;47.502;18.940;2022-11-21T04:33:19;97367.97;;;1.08;99.22
65756;BME280;52489;47.502;18.940;2022-11-21T04:34:22;97371.84;;;1.10;99.81
65756;BME280;52489;47.502;18.940;2022-11-21T04:35:25;97362.31;;;1.11;99.86
65756;BME280;52489;47.502;18.940;2022-11-21T04:36:29;97367.22;;;1.18;99.76
65756;BME280;52489;47.502;18.940;2022-11-21T04:37:32;97372.13;;;1.14;100.00
65756;BME280;52489;47.502;18.940;2022-11-21T04:38:35;97362.06;;;1.12;100.00
65756;BME280;52489;47.502;18.940;2022-11-21T04:39:38;97364.16;;;1.16;100.00
65756;BME280;52489;47.502;18.940;2022-11-21T04:40:42;97361.84;;;1.19;100.00
65756;BME280;52489;47.502;18.940;2022-11-21T04:41:46;97365.41;;;1.13;100.00
65756;BME280;52489;47.502;18.940;2022-11-21T04:42:49;97358.69;;;1.12;100.00
65756;BME280;52489;47.502;18.940;2022-11-21T04:43:52;97356.09;;;1.07;100.00
65756;BME280;52489;47.502;18.940;2022-11-21T04:44:54;97352.50;;;1.13;100.00
65756;BME280;52489;47.502;18.940;2022-11-21T04:45:57;97350.44;;;1.15;100.00
65756;BME280;52489;47.502;18.940;2022-11-21T04:47:00;97356.63;;;1.14;100.00
65756;BME280;52489;47.502;18.940;2022-11-21T04:48:07;97349.22;;;1.28;100.00
65756;BME280;52489;47.502;18.940;2022-11-21T04:49:09;97345.12;;;1.37;100.00
65756;BME280;52489;47.502;18.940;2022-11-21T04:50:14;97340.75;;;1.37;100.00
65756;BME280;52489;47.502;18.940;2022-11-21T04:51:17;97342.56;;;1.37;100.00
65756;BME280;52489;47.502;18.940;2022-11-21T04:52:20;97346.41;;;1.34;100.00
65756;BME280;52489;47.502;18.940;2022-11-21T04:53:23;97346.94;;;1.36;100.00
65756;BME280;52489;47.502;18.940;2022-11-21T04:54:25;97342.28;;;1.33;100.00
65756;BME280;52489;47.502;18.940;2022-11-21T04:55:30;97344.06;;;1.33;100.00
65756;BME280;52489;47.502;18.940;2022-11-21T04:56:34;97341.50;;;1.28;100.00
65756;BME280;52489;47.502;18.940;2022-11-21T04:57:37;97342.53;;;1.32;100.00
65756;BME280;52489;47.502;18.940;2022-11-21T04:58:42;97343.06;;;1.34;100.00
65756;BME280;52489;47.502;18.940;2022-11-21T04:59:44;97346.38;;;1.29;100.00
65756;BME280;52489;47.502;18.940;2022-11-21T05:00:47;97345.09;;;1.22;100.00
65756;BME280;52489;47.502;18.940;2022-11-21T05:01:50;97349.66;;;1.14;100.00
65756;BME280;52489;47.502;18.940;2022-11-21T05:02:52;97347.06;;;1.09;100.00
65756;BME280;52489;47.502;18.940;2022-11-21T05:03:55;97349.94;;;1.13;100.00
65756;BME280;52489;47.502;18.940;2022-11-21T05:04:58;97348.84;;;1.04;100.00
65756;BME280;52489;47.502;18.940;2022-11-21T05:06:01;97354.22;;;0.97;100.00
65756;BME280;52489;47.502;18.940;2022-11-21T05:07:04;97351.44;;;1.09;100.00
65756;BME280;52489;47.502;18.940;2022-11-21T05:08:07;97350.00;;;1.28;100.00
65756;BME280;52489;47.502;18.940;2022-11-21T05:09:10;97356.94;;;1.23;100.00
65756;BME280;52489;47.502;18.940;2022-11-21T05:10:13;97355.16;;;1.28;100.00
65756;BME280;52489;47.502;18.940;2022-11-21T05:11:15;97352.56;;;1.23;99.98
65756;BME280;52489;47.502;18.940;2022-11-21T05:12:37;97359.22;;;1.14;100.00
65756;BME280;52489;47.502;18.940;2022-11-21T05:13:58;97353.03;;;1.15;100.00
65756;BME280;52489;47.502;18.940;2022-11-21T05:15:01;97345.66;;;0.86;100.00
65756;BME280;52489;47.502;18.940;2022-11-21T05:16:04;97352.12;;;0.94;100.00
65756;BME280;52489;47.502;18.940;2022-11-21T05:17:06;97346.78;;;1.06;100.00
65756;BME280;52489;47.502;18.940;2022-11-21T05:18:10;97343.41;;;1.00;99.08
65756;BME280;52489;47.502;18.940;2022-11-21T05:19:13;97348.50;;;0.90;100.00
65756;BME280;52489;47.502;18.940;2022-11-21T05:20:16;97348.47;;;0.85;100.00
65756;BME280;52489;47.502;18.940;2022-11-21T05:21:19;97342.91;;;0.98;100.00
65756;BME280;52489;47.502;18.940;2022-11-21T05:22:22;97341.47;;;0.75;100.00
65756;BME280;52489;47.502;18.940;2022-11-21T05:23:24;97341.63;;;0.63;100.00
65756;BME280;52489;47.502;18.940;2022-11-21T05:24:27;97344.34;;;0.84;100.00
65756;BME280;52489;47.502;18.940;2022-11-21T05:25:30;97339.34;;;0.67;100.00
65756;BME280;52489;47.502;18.940;2022-11-21T05:26:33;97332.78;;;0.49;100.00
65756;BME280;52489;47.502;18.940;2022-11-21T05:27:36;97339.84;;;0.64;100.00
65756;BME280;52489;47.502;18.940;2022-11-21T05:28:39;97333.66;;;0.65;100.00
65756;BME280;52489;47.502;18.940;2022-11-21T05:29:42;97337.19;;;0.54;100.00
65756;BME280;52489;47.502;18.940;2022-11-21T05:30:44;97337.09;;;0.43;100.00
65756;BME280;52489;47.502;18.940;2022-11-21T05:31:47;97340.00;;;0.52;100.00
65756;BME280;52489;47.502;18.940;2022-11-21T05:32:50;97347.53;;;0.59;99.06
65756;BME280;52489;47.502;18.940;2022-11-21T05:33:53;97335.44;;;0.64;98.49
65756;BME280;52489;47.502;18.940;2022-11-21T05:34:56;97335.94;;;0.61;98.72
65756;BME280;52489;47.502;18.940;2022-11-21T05:35:58;97332.56;;;0.56;98.34
65756;BME280;52489;47.502;18.940;2022-11-21T05:37:01;97336.22;;;0.60;99.13
65756;BME280;52489;47.502;18.940;2022-11-21T05:38:04;97334.31;;;0.50;99.89
65756;BME280;52489;47.502;18.940;2022-11-21T05:39:07;97329.25;;;0.60;99.61
65756;BME280;52489;47.502;18.940;2022-11-21T05:40:10;97323.84;;;0.62;99.09
65756;BME280;52489;47.502;18.940;2022-11-21T05:41:13;97335.50;;;0.70;98.34
65756;BME280;52489;47.502;18.940;2022-11-21T05:42:15;97324.97;;;0.76;97.54
65756;BME280;52489;47.502;18.940;2022-11-21T05:43:38;97325.00;;;0.81;96.87
65756;BME280;52489;47.502;18.940;2022-11-21T05:44:47;97337.53;;;0.62;97.79
65756;BME280;52489;47.502;18.940;2022-11-21T05:45:50;97341.91;;;0.30;97.57
65756;BME280;52489;47.502;18.940;2022-11-21T05:46:53;97331.47;;;0.14;98.20
65756;BME280;52489;47.502;18.940;2022-11-21T05:47:56;97332.72;;;0.39;96.86
65756;BME280;52489;47.502;18.940;2022-11-21T05:49:00;97331.88;;;0.33;97.43